sensor_id;sensor_type;location;lat;lon;timestamp;P1;durP1;ratioP1;P2;durP2;ratioP2
21356;SDS011;10836;53.068;18.234;2023-07-20T00:02:05;7.80;;;4.95;;
21356;SDS011;10836;53.068;18.234;2023-07-20T00:04:33;8.77;;;5.40;;
21356;SDS011;10836;53.068;18.234;2023-07-20T00:07:01;7.13;;;5.15;;
21356;SDS011;10836;53.068;18.234;2023-07-20T00:09:28;9.10;;;5.47;;
21356;SDS011;10836;53.068;18.234;2023-07-20T00:11:55;7.43;;;5.38;;
21356;SDS011;10836;53.068;18.234;2023-07-20T00:14:22;7.50;;;5.32;;
21356;SDS011;10836;53.068;18.234;2023-07-20T00:16:52;7.63;;;4.85;;
21356;SDS011;10836;53.068;18.234;2023-07-20T00:19:25;8.68;;;5.30;;
21356;SDS011;10836;53.068;18.234;2023-07-20T00:21:54;13.02;;;6.03;;
21356;SDS011;10836;53.068;18.234;2023-07-20T00:24:21;10.40;;;5.90;;
21356;SDS011;10836;53.068;18.234;2023-07-20T00:26:48;8.57;;;5.93;;
21356;SDS011;10836;53.068;18.234;2023-07-20T00:29:16;9.88;;;6.32;;
21356;SDS011;10836;53.068;18.234;2023-07-20T00:31:43;9.80;;;5.70;;
21356;SDS011;10836;53.068;18.234;2023-07-20T00:34:10;10.45;;;5.72;;
21356;SDS011;10836;53.068;18.234;2023-07-20T00:36:38;9.65;;;6.00;;
21356;SDS011;10836;53.068;18.234;2023-07-20T00:39:04;8.32;;;5.60;;
21356;SDS011;10836;53.068;18.234;2023-07-20T00:41:31;10.30;;;6.18;;
21356;SDS011;10836;53.068;18.234;2023-07-20T00:43:59;12.02;;;6.45;;
21356;SDS011;10836;53.068;18.234;2023-07-20T00:46:26;11.98;;;7.07;;
21356;SDS011;10836;53.068;18.234;2023-07-20T00:48:54;8.25;;;5.70;;
21356;SDS011;10836;53.068;18.234;2023-07-20T00:51:21;8.50;;;5.75;;
21356;SDS011;10836;53.068;18.234;2023-07-20T00:53:50;9.55;;;6.32;;
21356;SDS011;10836;53.068;18.234;2023-07-20T00:56:17;9.18;;;5.70;;
21356;SDS011;10836;53.068;18.234;2023-07-20T00:58:44;7.68;;;5.07;;
21356;SDS011;10836;53.068;18.234;2023-07-20T01:01:13;9.30;;;5.50;;
21356;SDS011;10836;53.068;18.234;2023-07-20T01:03:40;8.30;;;5.50;;
21356;SDS011;10836;53.068;18.234;2023-07-20T01:09:00;9.02;;;5.00;;
21356;SDS011;10836;53.068;18.234;2023-07-20T01:14:10;8.45;;;5.25;;
21356;SDS011;10836;53.068;18.234;2023-07-20T01:16:38;8.25;;;5.72;;
21356;SDS011;10836;53.068;18.234;2023-07-20T01:19:05;8.45;;;5.50;;
21356;SDS011;10836;53.068;18.234;2023-07-20T01:21:36;10.77;;;5.82;;
21356;SDS011;10836;53.068;18.234;2023-07-20T01:24:18;8.63;;;5.60;;
21356;SDS011;10836;53.068;18.234;2023-07-20T01:32:42;10.40;;;6.30;;
21356;SDS011;10836;53.068;18.234;2023-07-20T01:35:13;9.27;;;6.47;;
21356;SDS011;10836;53.068;18.234;2023-07-20T01:37:43;8.90;;;6.40;;
21356;SDS011;10836;53.068;18.234;2023-07-20T01:40:13;11.05;;;6.47;;
21356;SDS011;10836;53.068;18.234;2023-07-20T01:42:48;9.13;;;6.47;;
21356;SDS011;10836;53.068;18.234;2023-07-20T01:45:14;9.95;;;6.70;;
21356;SDS011;10836;53.068;18.234;2023-07-20T01:47:41;16.67;;;6.82;;
21356;SDS011;10836;53.068;18.234;2023-07-20T01:50:09;11.07;;;6.57;;
21356;SDS011;10836;53.068;18.234;2023-07-20T01:52:36;9.88;;;6.53;;
21356;SDS011;10836;53.068;18.234;2023-07-20T01:55:03;11.55;;;7.20;;
21356;SDS011;10836;53.068;18.234;2023-07-20T01:57:31;11.80;;;7.65;;
21356;SDS011;10836;53.068;18.234;2023-07-20T01:59:58;11.23;;;6.63;;
21356;SDS011;10836;53.068;18.234;2023-07-20T02:02:26;11.70;;;7.68;;
21356;SDS011;10836;53.068;18.234;2023-07-20T02:04:54;13.88;;;7.82;;
21356;SDS011;10836;53.068;18.234;2023-07-20T02:07:21;11.70;;;8.20;;
21356;SDS011;10836;53.068;18.234;2023-07-20T02:09:48;13.38;;;8.07;;
21356;SDS011;10836;53.068;18.234;2023-07-20T02:12:15;14.30;;;7.80;;
21356;SDS011;10836;53.068;18.234;2023-07-20T02:14:42;10.00;;;7.22;;
21356;SDS011;10836;53.068;18.234;2023-07-20T02:17:09;14.13;;;8.32;;
21356;SDS011;10836;53.068;18.234;2023-07-20T02:19:40;9.93;;;6.65;;
21356;SDS011;10836;53.068;18.234;2023-07-20T02:22:07;10.43;;;7.13;;
21356;SDS011;10836;53.068;18.234;2023-07-20T02:24:34;12.60;;;7.45;;
21356;SDS011;10836;53.068;18.234;2023-07-20T02:27:01;10.90;;;7.50;;
21356;SDS011;10836;53.068;18.234;2023-07-20T02:29:28;12.43;;;7.57;;
21356;SDS011;10836;53.068;18.234;2023-07-20T02:31:55;11.38;;;7.35;;
21356;SDS011;10836;53.068;18.234;2023-07-20T02:34:22;9.70;;;6.95;;
21356;SDS011;10836;53.068;18.234;2023-07-20T02:36:49;12.57;;;7.43;;
21356;SDS011;10836;53.068;18.234;2023-07-20T02:39:16;12.07;;;6.95;;
21356;SDS011;10836;53.068;18.234;2023-07-20T02:41:43;15.38;;;7.38;;
21356;SDS011;10836;53.068;18.234;2023-07-20T02:44:10;12.40;;;7.32;;
21356;SDS011;10836;53.068;18.234;2023-07-20T02:46:37;10.57;;;7.13;;
21356;SDS011;10836;53.068;18.234;2023-07-20T02:49:04;11.98;;;7.30;;
21356;SDS011;10836;53.068;18.234;2023-07-20T02:51:32;12.13;;;7.25;;
21356;SDS011;10836;53.068;18.234;2023-07-20T02:53:59;11.00;;;6.75;;
21356;SDS011;10836;53.068;18.234;2023-07-20T02:56:26;10.35;;;7.22;;
21356;SDS011;10836;53.068;18.234;2023-07-20T02:58:53;10.88;;;6.97;;
21356;SDS011;10836;53.068;18.234;2023-07-20T03:01:20;11.27;;;7.28;;
21356;SDS011;10836;53.068;18.234;2023-07-20T03:03:48;11.05;;;6.88;;
21356;SDS011;10836;53.068;18.234;2023-07-20T03:06:15;11.38;;;7.38;;
21356;SDS011;10836;53.068;18.234;2023-07-20T03:08:43;10.90;;;7.00;;
21356;SDS011;10836;53.068;18.234;2023-07-20T03:11:19;10.75;;;7.03;;
21356;SDS011;10836;53.068;18.234;2023-07-20T03:13:47;12.73;;;6.57;;
21356;SDS011;10836;53.068;18.234;2023-07-20T03:16:17;10.88;;;7.18;;
21356;SDS011;10836;53.068;18.234;2023-07-20T03:18:45;12.07;;;7.63;;
21356;SDS011;10836;53.068;18.234;2023-07-20T03:21:13;12.50;;;7.60;;
21356;SDS011;10836;53.068;18.234;2023-07-20T03:23:40;11.82;;;6.70;;
21356;SDS011;10836;53.068;18.234;2023-07-20T03:26:09;10.38;;;6.50;;
21356;SDS011;10836;53.068;18.234;2023-07-20T03:28:36;9.93;;;6.55;;
21356;SDS011;10836;53.068;18.234;2023-07-20T03:31:05;12.70;;;6.55;;
21356;SDS011;10836;53.068;18.234;2023-07-20T03:33:36;9.98;;;6.82;;
21356;SDS011;10836;53.068;18.234;2023-07-20T03:36:03;10.70;;;6.63;;
21356;SDS011;10836;53.068;18.234;2023-07-20T03:38:30;11.05;;;6.57;;
21356;SDS011;10836;53.068;18.234;2023-07-20T03:40:58;10.05;;;7.03;;
21356;SDS011;10836;53.068;18.234;2023-07-20T03:43:27;11.82;;;7.15;;
21356;SDS011;10836;53.068;18.234;2023-07-20T03:45:55;12.55;;;7.18;;
21356;SDS011;10836;53.068;18.234;2023-07-20T03:48:23;12.68;;;6.97;;
21356;SDS011;10836;53.068;18.234;2023-07-20T03:50:52;13.68;;;8.00;;
21356;SDS011;10836;53.068;18.234;2023-07-20T03:53:21;10.63;;;6.68;;
21356;SDS011;10836;53.068;18.234;2023-07-20T03:55:49;13.07;;;6.22;;
21356;SDS011;10836;53.068;18.234;2023-07-20T03:58:17;10.52;;;6.55;;
21356;SDS011;10836;53.068;18.234;2023-07-20T04:00:46;8.82;;;6.05;;
21356;SDS011;10836;53.068;18.234;2023-07-20T04:03:14;11.30;;;7.57;;
21356;SDS011;10836;53.068;18.234;2023-07-20T04:05:41;9.13;;;7.05;;
21356;SDS011;10836;53.068;18.234;2023-07-20T04:08:09;10.02;;;6.80;;
21356;SDS011;10836;53.068;18.234;2023-07-20T04:10:38;15.18;;;7.65;;
21356;SDS011;10836;53.068;18.234;2023-07-20T04:13:05;11.20;;;6.85;;
21356;SDS011;10836;53.068;18.234;2023-07-20T04:15:33;15.35;;;7.40;;
21356;SDS011;10836;53.068;18.234;2023-07-20T04:18:00;10.05;;;7.28;;
21356;SDS011;10836;53.068;18.234;2023-07-20T04:20:28;13.35;;;7.40;;
21356;SDS011;10836;53.068;18.234;2023-07-20T04:22:55;13.75;;;7.07;;
21356;SDS011;10836;53.068;18.234;2023-07-20T04:25:22;12.00;;;7.18;;
21356;SDS011;10836;53.068;18.234;2023-07-20T04:27:49;13.90;;;8.70;;
21356;SDS011;10836;53.068;18.234;2023-07-20T04:30:18;14.00;;;8.88;;
21356;SDS011;10836;53.068;18.234;2023-07-20T04:32:49;15.98;;;9.15;;
21356;SDS011;10836;53.068;18.234;2023-07-20T04:35:21;20.13;;;10.10;;
21356;SDS011;10836;53.068;18.234;2023-07-20T04:38:16;23.30;;;9.20;;
21356;SDS011;10836;53.068;18.234;2023-07-20T04:40:47;17.92;;;8.70;;
21356;SDS011;10836;53.068;18.234;2023-07-20T04:43:16;20.27;;;9.13;;
21356;SDS011;10836;53.068;18.234;2023-07-20T04:45:44;14.80;;;8.25;;
21356;SDS011;10836;53.068;18.234;2023-07-20T04:48:14;14.25;;;8.65;;
21356;SDS011;10836;53.068;18.234;2023-07-20T04:50:49;24.17;;;7.93;;
21356;SDS011;10836;53.068;18.234;2023-07-20T04:53:15;31.20;;;11.68;;
21356;SDS011;10836;53.068;18.234;2023-07-20T04:55:47;21.73;;;9.90;;
21356;SDS011;10836;53.068;18.234;2023-07-20T04:58:23;64.25;;;17.80;;
21356;SDS011;10836;53.068;18.234;2023-07-20T05:00:51;50.80;;;16.65;;
21356;SDS011;10836;53.068;18.234;2023-07-20T05:03:20;26.25;;;11.98;;
21356;SDS011;10836;53.068;18.234;2023-07-20T05:05:48;19.17;;;8.88;;
21356;SDS011;10836;53.068;18.234;2023-07-20T05:08:16;11.93;;;8.63;;
21356;SDS011;10836;53.068;18.234;2023-07-20T05:10:43;19.27;;;9.52;;
21356;SDS011;10836;53.068;18.234;2023-07-20T05:13:10;21.25;;;10.35;;
21356;SDS011;10836;53.068;18.234;2023-07-20T05:15:38;24.00;;;11.13;;
21356;SDS011;10836;53.068;18.234;2023-07-20T05:18:07;16.90;;;10.15;;
21356;SDS011;10836;53.068;18.234;2023-07-20T05:20:35;14.00;;;9.85;;
21356;SDS011;10836;53.068;18.234;2023-07-20T05:23:03;13.30;;;9.00;;
21356;SDS011;10836;53.068;18.234;2023-07-20T05:25:31;13.88;;;10.00;;
21356;SDS011;10836;53.068;18.234;2023-07-20T05:27:58;16.70;;;9.70;;
21356;SDS011;10836;53.068;18.234;2023-07-20T05:30:25;14.07;;;9.45;;
21356;SDS011;10836;53.068;18.234;2023-07-20T05:32:52;12.52;;;9.25;;
21356;SDS011;10836;53.068;18.234;2023-07-20T05:35:21;12.77;;;9.20;;
21356;SDS011;10836;53.068;18.234;2023-07-20T05:37:49;16.20;;;9.88;;
21356;SDS011;10836;53.068;18.234;2023-07-20T05:40:16;13.85;;;9.95;;
21356;SDS011;10836;53.068;18.234;2023-07-20T05:42:47;22.13;;;10.75;;
21356;SDS011;10836;53.068;18.234;2023-07-20T05:45:18;17.85;;;10.43;;
21356;SDS011;10836;53.068;18.234;2023-07-20T05:47:45;13.27;;;10.18;;
21356;SDS011;10836;53.068;18.234;2023-07-20T05:50:13;15.48;;;10.00;;
21356;SDS011;10836;53.068;18.234;2023-07-20T05:52:40;17.30;;;9.95;;
21356;SDS011;10836;53.068;18.234;2023-07-20T05:55:07;15.80;;;9.15;;
21356;SDS011;10836;53.068;18.234;2023-07-20T05:57:34;13.38;;;8.98;;
21356;SDS011;10836;53.068;18.234;2023-07-20T06:00:02;13.50;;;8.57;;
21356;SDS011;10836;53.068;18.234;2023-07-20T06:02:37;14.88;;;8.48;;
21356;SDS011;10836;53.068;18.234;2023-07-20T06:05:08;14.15;;;8.80;;
21356;SDS011;10836;53.068;18.234;2023-07-20T06:07:38;18.10;;;9.45;;
21356;SDS011;10836;53.068;18.234;2023-07-20T06:10:06;13.48;;;7.97;;
21356;SDS011;10836;53.068;18.234;2023-07-20T06:12:33;15.98;;;9.07;;
21356;SDS011;10836;53.068;18.234;2023-07-20T06:15:01;13.20;;;8.75;;
21356;SDS011;10836;53.068;18.234;2023-07-20T06:17:30;18.27;;;9.20;;
21356;SDS011;10836;53.068;18.234;2023-07-20T06:19:57;12.20;;;7.53;;
21356;SDS011;10836;53.068;18.234;2023-07-20T06:22:24;11.50;;;6.30;;
21356;SDS011;10836;53.068;18.234;2023-07-20T06:24:51;13.63;;;6.80;;
21356;SDS011;10836;53.068;18.234;2023-07-20T06:27:18;14.38;;;6.63;;
21356;SDS011;10836;53.068;18.234;2023-07-20T06:29:45;14.80;;;7.32;;
21356;SDS011;10836;53.068;18.234;2023-07-20T06:32:12;9.98;;;6.88;;
21356;SDS011;10836;53.068;18.234;2023-07-20T06:34:40;11.40;;;6.95;;
21356;SDS011;10836;53.068;18.234;2023-07-20T06:37:07;12.77;;;7.05;;
21356;SDS011;10836;53.068;18.234;2023-07-20T06:39:34;12.60;;;7.18;;
21356;SDS011;10836;53.068;18.234;2023-07-20T06:42:04;13.32;;;7.38;;
21356;SDS011;10836;53.068;18.234;2023-07-20T06:44:31;11.32;;;6.90;;
21356;SDS011;10836;53.068;18.234;2023-07-20T06:46:58;10.88;;;6.60;;
21356;SDS011;10836;53.068;18.234;2023-07-20T06:49:26;9.07;;;6.30;;
21356;SDS011;10836;53.068;18.234;2023-07-20T06:51:53;18.00;;;7.25;;
21356;SDS011;10836;53.068;18.234;2023-07-20T06:54:20;13.70;;;5.53;;
21356;SDS011;10836;53.068;18.234;2023-07-20T06:56:50;12.55;;;4.38;;
21356;SDS011;10836;53.068;18.234;2023-07-20T06:59:37;6.65;;;3.67;;
21356;SDS011;10836;53.068;18.234;2023-07-20T07:02:07;5.68;;;2.42;;
21356;SDS011;10836;53.068;18.234;2023-07-20T07:04:41;7.20;;;4.03;;
21356;SDS011;10836;53.068;18.234;2023-07-20T07:07:09;7.85;;;3.75;;
21356;SDS011;10836;53.068;18.234;2023-07-20T07:09:36;6.80;;;3.50;;
21356;SDS011;10836;53.068;18.234;2023-07-20T07:12:03;6.88;;;3.35;;
21356;SDS011;10836;53.068;18.234;2023-07-20T07:14:31;4.07;;;3.10;;
21356;SDS011;10836;53.068;18.234;2023-07-20T07:16:59;8.18;;;3.22;;
21356;SDS011;10836;53.068;18.234;2023-07-20T07:19:31;4.15;;;2.55;;
21356;SDS011;10836;53.068;18.234;2023-07-20T07:21:57;6.30;;;2.65;;
21356;SDS011;10836;53.068;18.234;2023-07-20T07:24:27;4.60;;;2.53;;
21356;SDS011;10836;53.068;18.234;2023-07-20T07:27:00;4.57;;;2.47;;
21356;SDS011;10836;53.068;18.234;2023-07-20T07:29:28;5.32;;;2.67;;
21356;SDS011;10836;53.068;18.234;2023-07-20T07:31:55;6.25;;;2.08;;
21356;SDS011;10836;53.068;18.234;2023-07-20T07:34:22;6.30;;;2.25;;
21356;SDS011;10836;53.068;18.234;2023-07-20T07:36:49;3.45;;;2.00;;
21356;SDS011;10836;53.068;18.234;2023-07-20T07:39:17;4.10;;;1.98;;
21356;SDS011;10836;53.068;18.234;2023-07-20T07:41:47;3.70;;;1.60;;
21356;SDS011;10836;53.068;18.234;2023-07-20T07:44:14;6.07;;;1.90;;
21356;SDS011;10836;53.068;18.234;2023-07-20T07:46:41;6.55;;;2.50;;
21356;SDS011;10836;53.068;18.234;2023-07-20T07:49:08;5.28;;;2.70;;
21356;SDS011;10836;53.068;18.234;2023-07-20T07:51:35;9.23;;;2.80;;
21356;SDS011;10836;53.068;18.234;2023-07-20T07:54:02;4.60;;;2.40;;
21356;SDS011;10836;53.068;18.234;2023-07-20T07:56:29;6.38;;;2.00;;
21356;SDS011;10836;53.068;18.234;2023-07-20T07:58:56;5.13;;;2.47;;
21356;SDS011;10836;53.068;18.234;2023-07-20T08:01:23;6.82;;;2.45;;
21356;SDS011;10836;53.068;18.234;2023-07-20T08:03:50;5.10;;;2.22;;
21356;SDS011;10836;53.068;18.234;2023-07-20T08:06:17;7.82;;;3.28;;
21356;SDS011;10836;53.068;18.234;2023-07-20T08:08:44;5.55;;;2.67;;
21356;SDS011;10836;53.068;18.234;2023-07-20T08:11:11;11.23;;;2.90;;
21356;SDS011;10836;53.068;18.234;2023-07-20T08:13:41;4.03;;;2.58;;
21356;SDS011;10836;53.068;18.234;2023-07-20T08:16:08;3.92;;;2.50;;
21356;SDS011;10836;53.068;18.234;2023-07-20T08:18:35;4.82;;;2.45;;
21356;SDS011;10836;53.068;18.234;2023-07-20T08:21:02;5.65;;;2.42;;
21356;SDS011;10836;53.068;18.234;2023-07-20T08:23:30;7.20;;;2.30;;
21356;SDS011;10836;53.068;18.234;2023-07-20T08:25:57;5.68;;;2.90;;
21356;SDS011;10836;53.068;18.234;2023-07-20T08:28:24;7.30;;;2.38;;
21356;SDS011;10836;53.068;18.234;2023-07-20T08:30:52;5.53;;;2.45;;
21356;SDS011;10836;53.068;18.234;2023-07-20T08:33:20;5.82;;;2.35;;
21356;SDS011;10836;53.068;18.234;2023-07-20T08:35:47;5.63;;;2.33;;
21356;SDS011;10836;53.068;18.234;2023-07-20T08:38:14;4.03;;;1.92;;
21356;SDS011;10836;53.068;18.234;2023-07-20T08:40:44;4.93;;;1.75;;
21356;SDS011;10836;53.068;18.234;2023-07-20T08:43:12;3.22;;;1.60;;
21356;SDS011;10836;53.068;18.234;2023-07-20T08:45:40;7.22;;;1.90;;
21356;SDS011;10836;53.068;18.234;2023-07-20T08:48:08;6.70;;;2.25;;
21356;SDS011;10836;53.068;18.234;2023-07-20T08:50:35;5.88;;;1.85;;
21356;SDS011;10836;53.068;18.234;2023-07-20T08:53:02;2.28;;;1.67;;
21356;SDS011;10836;53.068;18.234;2023-07-20T08:55:29;5.28;;;1.80;;
21356;SDS011;10836;53.068;18.234;2023-07-20T08:57:58;4.53;;;1.85;;
21356;SDS011;10836;53.068;18.234;2023-07-20T09:00:26;5.97;;;2.38;;
21356;SDS011;10836;53.068;18.234;2023-07-20T09:02:56;3.90;;;1.95;;
21356;SDS011;10836;53.068;18.234;2023-07-20T09:05:24;5.13;;;2.00;;
21356;SDS011;10836;53.068;18.234;2023-07-20T09:07:53;5.40;;;1.95;;
21356;SDS011;10836;53.068;18.234;2023-07-20T09:10:20;4.90;;;1.60;;
21356;SDS011;10836;53.068;18.234;2023-07-20T09:12:48;3.50;;;1.83;;
21356;SDS011;10836;53.068;18.234;2023-07-20T09:15:15;6.15;;;1.50;;
21356;SDS011;10836;53.068;18.234;2023-07-20T09:17:47;5.22;;;1.58;;
21356;SDS011;10836;53.068;18.234;2023-07-20T09:20:16;4.85;;;1.30;;
21356;SDS011;10836;53.068;18.234;2023-07-20T09:22:48;3.67;;;1.40;;
21356;SDS011;10836;53.068;18.234;2023-07-20T09:25:17;3.33;;;1.20;;
21356;SDS011;10836;53.068;18.234;2023-07-20T09:27:49;2.17;;;1.20;;
21356;SDS011;10836;53.068;18.234;2023-07-20T09:30:18;2.63;;;1.15;;
21356;SDS011;10836;53.068;18.234;2023-07-20T09:32:46;4.97;;;1.33;;
21356;SDS011;10836;53.068;18.234;2023-07-20T09:35:21;2.88;;;1.17;;
21356;SDS011;10836;53.068;18.234;2023-07-20T09:37:54;2.97;;;1.42;;
21356;SDS011;10836;53.068;18.234;2023-07-20T09:40:27;2.53;;;0.93;;
21356;SDS011;10836;53.068;18.234;2023-07-20T09:42:58;4.43;;;1.13;;
21356;SDS011;10836;53.068;18.234;2023-07-20T09:45:33;3.00;;;1.50;;
21356;SDS011;10836;53.068;18.234;2023-07-20T09:48:06;3.78;;;1.05;;
21356;SDS011;10836;53.068;18.234;2023-07-20T09:50:39;2.60;;;0.88;;
21356;SDS011;10836;53.068;18.234;2023-07-20T09:53:12;1.90;;;0.85;;
21356;SDS011;10836;53.068;18.234;2023-07-20T09:55:41;9.85;;;1.00;;
21356;SDS011;10836;53.068;18.234;2023-07-20T09:58:10;3.20;;;0.80;;
21356;SDS011;10836;53.068;18.234;2023-07-20T10:00:38;24.70;;;2.35;;
21356;SDS011;10836;53.068;18.234;2023-07-20T10:03:09;3.22;;;0.98;;
21356;SDS011;10836;53.068;18.234;2023-07-20T10:05:40;2.63;;;0.80;;
21356;SDS011;10836;53.068;18.234;2023-07-20T10:08:11;1.60;;;0.80;;
21356;SDS011;10836;53.068;18.234;2023-07-20T10:10:42;2.65;;;0.90;;
21356;SDS011;10836;53.068;18.234;2023-07-20T10:13:17;1.75;;;0.70;;
21356;SDS011;10836;53.068;18.234;2023-07-20T10:15:50;10.57;;;1.48;;
21356;SDS011;10836;53.068;18.234;2023-07-20T10:18:22;2.78;;;1.10;;
21356;SDS011;10836;53.068;18.234;2023-07-20T10:20:55;2.80;;;0.70;;
21356;SDS011;10836;53.068;18.234;2023-07-20T10:23:29;3.30;;;0.70;;
21356;SDS011;10836;53.068;18.234;2023-07-20T10:25:57;1.67;;;0.50;;
21356;SDS011;10836;53.068;18.234;2023-07-20T10:28:27;1.13;;;0.43;;
21356;SDS011;10836;53.068;18.234;2023-07-20T10:30:54;4.85;;;0.75;;
21356;SDS011;10836;53.068;18.234;2023-07-20T10:33:21;0.85;;;0.60;;
21356;SDS011;10836;53.068;18.234;2023-07-20T10:36:01;7.05;;;0.82;;
21356;SDS011;10836;53.068;18.234;2023-07-20T10:38:40;3.83;;;0.63;;
21356;SDS011;10836;53.068;18.234;2023-07-20T10:41:17;1.40;;;0.50;;
21356;SDS011;10836;53.068;18.234;2023-07-20T10:43:49;2.33;;;0.75;;
21356;SDS011;10836;53.068;18.234;2023-07-20T10:46:33;4.55;;;0.75;;
21356;SDS011;10836;53.068;18.234;2023-07-20T10:49:04;1.48;;;0.63;;
21356;SDS011;10836;53.068;18.234;2023-07-20T10:51:42;4.10;;;0.82;;
21356;SDS011;10836;53.068;18.234;2023-07-20T10:56:48;1.10;;;0.52;;
21356;SDS011;10836;53.068;18.234;2023-07-20T10:59:19;0.57;;;0.50;;
21356;SDS011;10836;53.068;18.234;2023-07-20T11:02:05;1.38;;;0.80;;
21356;SDS011;10836;53.068;18.234;2023-07-20T11:04:41;2.28;;;0.80;;
21356;SDS011;10836;53.068;18.234;2023-07-20T11:07:09;2.40;;;0.70;;
21356;SDS011;10836;53.068;18.234;2023-07-20T11:09:37;5.28;;;0.60;;
21356;SDS011;10836;53.068;18.234;2023-07-20T11:12:23;12.13;;;1.55;;
21356;SDS011;10836;53.068;18.234;2023-07-20T11:14:54;20.23;;;1.90;;
21356;SDS011;10836;53.068;18.234;2023-07-20T11:17:33;6.65;;;1.20;;
21356;SDS011;10836;53.068;18.234;2023-07-20T11:20:01;1.63;;;0.70;;
21356;SDS011;10836;53.068;18.234;2023-07-20T11:22:32;3.08;;;0.90;;
21356;SDS011;10836;53.068;18.234;2023-07-20T11:25:00;1.05;;;0.70;;
21356;SDS011;10836;53.068;18.234;2023-07-20T11:27:27;3.38;;;0.70;;
21356;SDS011;10836;53.068;18.234;2023-07-20T11:29:56;7.90;;;1.15;;
21356;SDS011;10836;53.068;18.234;2023-07-20T11:32:23;1.33;;;0.70;;
21356;SDS011;10836;53.068;18.234;2023-07-20T11:34:51;4.00;;;0.70;;
21356;SDS011;10836;53.068;18.234;2023-07-20T11:37:18;3.10;;;0.73;;
21356;SDS011;10836;53.068;18.234;2023-07-20T11:39:45;2.00;;;0.80;;
21356;SDS011;10836;53.068;18.234;2023-07-20T11:42:13;3.00;;;0.90;;
21356;SDS011;10836;53.068;18.234;2023-07-20T11:45:03;2.67;;;0.80;;
21356;SDS011;10836;53.068;18.234;2023-07-20T11:47:32;5.90;;;0.73;;
21356;SDS011;10836;53.068;18.234;2023-07-20T11:50:03;2.88;;;0.63;;
21356;SDS011;10836;53.068;18.234;2023-07-20T11:52:30;1.98;;;0.52;;
21356;SDS011;10836;53.068;18.234;2023-07-20T11:54:58;3.83;;;0.82;;
21356;SDS011;10836;53.068;18.234;2023-07-20T11:57:25;4.18;;;0.60;;
21356;SDS011;10836;53.068;18.234;2023-07-20T12:00:00;1.90;;;0.93;;
21356;SDS011;10836;53.068;18.234;2023-07-20T12:02:32;5.22;;;0.70;;
21356;SDS011;10836;53.068;18.234;2023-07-20T12:05:00;7.45;;;0.90;;
21356;SDS011;10836;53.068;18.234;2023-07-20T12:07:28;8.85;;;1.60;;
21356;SDS011;10836;53.068;18.234;2023-07-20T12:10:03;3.65;;;0.95;;
21356;SDS011;10836;53.068;18.234;2023-07-20T12:12:39;1.40;;;0.90;;
21356;SDS011;10836;53.068;18.234;2023-07-20T12:15:26;4.43;;;0.90;;
21356;SDS011;10836;53.068;18.234;2023-07-20T12:17:56;3.05;;;0.57;;
21356;SDS011;10836;53.068;18.234;2023-07-20T12:20:28;2.22;;;0.60;;
21356;SDS011;10836;53.068;18.234;2023-07-20T12:23:02;3.35;;;0.60;;
21356;SDS011;10836;53.068;18.234;2023-07-20T12:25:37;16.63;;;1.60;;
21356;SDS011;10836;53.068;18.234;2023-07-20T12:28:10;6.65;;;0.90;;
21356;SDS011;10836;53.068;18.234;2023-07-20T12:30:39;1.45;;;0.60;;
21356;SDS011;10836;53.068;18.234;2023-07-20T12:33:07;0.80;;;0.50;;
21356;SDS011;10836;53.068;18.234;2023-07-20T12:35:35;2.95;;;0.63;;
21356;SDS011;10836;53.068;18.234;2023-07-20T12:38:02;1.73;;;0.70;;
21356;SDS011;10836;53.068;18.234;2023-07-20T12:40:30;2.53;;;0.52;;
21356;SDS011;10836;53.068;18.234;2023-07-20T12:42:57;1.65;;;0.90;;
21356;SDS011;10836;53.068;18.234;2023-07-20T12:45:24;1.13;;;0.50;;
21356;SDS011;10836;53.068;18.234;2023-07-20T12:47:51;2.20;;;0.80;;
21356;SDS011;10836;53.068;18.234;2023-07-20T12:50:19;1.75;;;0.70;;
21356;SDS011;10836;53.068;18.234;2023-07-20T12:52:46;1.42;;;0.60;;
21356;SDS011;10836;53.068;18.234;2023-07-20T12:55:13;4.10;;;0.85;;
21356;SDS011;10836;53.068;18.234;2023-07-20T12:57:41;2.65;;;0.60;;
21356;SDS011;10836;53.068;18.234;2023-07-20T13:00:09;3.13;;;0.63;;
21356;SDS011;10836;53.068;18.234;2023-07-20T13:02:38;4.82;;;0.75;;
21356;SDS011;10836;53.068;18.234;2023-07-20T13:05:05;12.32;;;1.05;;
21356;SDS011;10836;53.068;18.234;2023-07-20T13:07:36;3.85;;;0.60;;
21356;SDS011;10836;53.068;18.234;2023-07-20T13:10:08;7.25;;;0.80;;
21356;SDS011;10836;53.068;18.234;2023-07-20T13:12:35;6.95;;;0.75;;
21356;SDS011;10836;53.068;18.234;2023-07-20T13:15:04;3.75;;;0.68;;
21356;SDS011;10836;53.068;18.234;2023-07-20T13:17:36;1.30;;;0.50;;
21356;SDS011;10836;53.068;18.234;2023-07-20T13:20:05;1.98;;;1.02;;
21356;SDS011;10836;53.068;18.234;2023-07-20T13:22:35;3.58;;;0.90;;
21356;SDS011;10836;53.068;18.234;2023-07-20T13:25:09;14.57;;;1.45;;
21356;SDS011;10836;53.068;18.234;2023-07-20T13:27:36;6.60;;;0.88;;
21356;SDS011;10836;53.068;18.234;2023-07-20T13:30:05;6.07;;;1.13;;
21356;SDS011;10836;53.068;18.234;2023-07-20T13:32:36;1.65;;;0.77;;
21356;SDS011;10836;53.068;18.234;2023-07-20T13:35:07;7.22;;;1.20;;
21356;SDS011;10836;53.068;18.234;2023-07-20T13:37:34;3.42;;;1.00;;
21356;SDS011;10836;53.068;18.234;2023-07-20T13:40:01;3.30;;;0.80;;
21356;SDS011;10836;53.068;18.234;2023-07-20T13:42:29;11.50;;;0.90;;
21356;SDS011;10836;53.068;18.234;2023-07-20T13:44:56;3.00;;;0.77;;
21356;SDS011;10836;53.068;18.234;2023-07-20T13:47:23;2.13;;;0.60;;
21356;SDS011;10836;53.068;18.234;2023-07-20T13:49:51;1.67;;;0.65;;
21356;SDS011;10836;53.068;18.234;2023-07-20T13:52:30;3.28;;;0.55;;
21356;SDS011;10836;53.068;18.234;2023-07-20T13:55:00;3.55;;;0.43;;
21356;SDS011;10836;53.068;18.234;2023-07-20T13:57:31;9.20;;;0.90;;
21356;SDS011;10836;53.068;18.234;2023-07-20T14:00:02;3.30;;;0.65;;
21356;SDS011;10836;53.068;18.234;2023-07-20T14:02:37;4.57;;;0.73;;
21356;SDS011;10836;53.068;18.234;2023-07-20T14:05:07;2.85;;;0.88;;
21356;SDS011;10836;53.068;18.234;2023-07-20T14:07:39;2.22;;;0.50;;
21356;SDS011;10836;53.068;18.234;2023-07-20T14:10:07;3.25;;;0.80;;
21356;SDS011;10836;53.068;18.234;2023-07-20T14:12:37;3.40;;;0.55;;
21356;SDS011;10836;53.068;18.234;2023-07-20T14:15:04;2.85;;;0.60;;
21356;SDS011;10836;53.068;18.234;2023-07-20T14:17:32;1.38;;;0.55;;
21356;SDS011;10836;53.068;18.234;2023-07-20T14:19:59;3.05;;;0.50;;
21356;SDS011;10836;53.068;18.234;2023-07-20T14:22:26;3.78;;;0.45;;
21356;SDS011;10836;53.068;18.234;2023-07-20T14:24:53;1.48;;;0.40;;
21356;SDS011;10836;53.068;18.234;2023-07-20T14:27:20;20.80;;;1.92;;
21356;SDS011;10836;53.068;18.234;2023-07-20T14:29:47;2.20;;;0.40;;
21356;SDS011;10836;53.068;18.234;2023-07-20T14:32:15;0.88;;;0.43;;
21356;SDS011;10836;53.068;18.234;2023-07-20T14:34:42;0.47;;;0.43;;
21356;SDS011;10836;53.068;18.234;2023-07-20T14:37:09;0.75;;;0.55;;
21356;SDS011;10836;53.068;18.234;2023-07-20T14:39:36;1.75;;;0.47;;
21356;SDS011;10836;53.068;18.234;2023-07-20T14:42:03;0.40;;;0.40;;
21356;SDS011;10836;53.068;18.234;2023-07-20T14:44:32;4.18;;;0.40;;
21356;SDS011;10836;53.068;18.234;2023-07-20T14:46:59;0.30;;;0.30;;
21356;SDS011;10836;53.068;18.234;2023-07-20T14:49:41;2.13;;;0.57;;
21356;SDS011;10836;53.068;18.234;2023-07-20T14:52:08;2.00;;;0.30;;
21356;SDS011;10836;53.068;18.234;2023-07-20T14:54:38;0.80;;;0.40;;